Data for 08/03/2017

Time Sea-Level Adjusted Pressure Absolute Pressure Temperature Relative Humidity Dew Point   
(mb) (inHg) (mb) (inHg) (C) (F) (%) (C) (F)
00:05 1027 30.33 857 25.31 14.3 57.7 63 7.3 45.2
00:10 1027 30.33 857 25.31 14.3 57.7 63 7.3 45.1
00:15 1027 30.33 857 25.31 14.3 57.7 63 7.4 45.3
00:20 1027 30.33 857 25.31 14.2 57.6 63 7.4 45.4
00:25 1027 30.33 857 25.31 14.1 57.4 64 7.5 45.5
00:30 1027 30.33 857 25.31 14 57.1 65 7.5 45.5
00:35 1027 30.33 857 25.31 13.8 56.9 65 7.5 45.5
00:40 1027 30.33 857 25.31 13.8 56.8 66 7.5 45.5
00:45 1027 30.33 857 25.31 13.6 56.5 66 7.5 45.5
00:50 1027 30.33 857 25.31 13.6 56.4 66 7.4 45.4
00:55 1027 30.33 856 25.28 13.6 56.4 66 7.5 45.5
01:00 1027 30.33 857 25.31 13.5 56.3 67 7.5 45.5
01:05 1027 30.33 857 25.31 13.4 56.1 67 7.5 45.6
01:10 1027 30.33 857 25.31 13.3 56 68 7.6 45.7
01:15 1027 30.33 857 25.31 13.2 55.8 69 7.6 45.8
01:20 1027 30.33 857 25.31 13.1 55.6 69 7.7 45.8
01:25 1027 30.33 857 25.31 13.1 55.5 69 7.6 45.8
01:30 1027 30.33 857 25.31 13 55.5 70 7.7 45.9
01:35 1027 30.33 857 25.31 13 55.3 70 7.7 45.9
01:40 1027 30.33 857 25.31 12.9 55.2 71 7.8 46
01:45 1027 30.33 857 25.31 12.9 55.1 71 7.8 46.1
01:50 1027 30.33 857 25.31 12.8 55.1 72 7.9 46.2
01:55 1027 30.33 857 25.31 12.8 55 72 7.8 46.1
02:00 1027 30.33 856 25.28 12.8 55 72 7.9 46.2
02:05 1027 30.33 856 25.28 12.8 55 72 7.9 46.3
02:10 1027 30.33 856 25.28 12.8 55 72 7.9 46.3
02:15 1027 30.33 856 25.28 12.8 55 73 8 46.4
02:20 1027 30.33 856 25.28 12.7 54.9 72 7.9 46.3
02:25 1027 30.33 856 25.28 12.7 54.9 73 7.9 46.3
02:30 1027 30.33 856 25.28 12.7 54.9 73 8 46.3
02:35 1027 30.33 856 25.28 12.7 54.9 73 7.9 46.3
02:40 1027 30.33 856 25.28 12.7 54.8 73 8 46.3
02:45 1027 30.33 856 25.28 12.7 54.8 73 7.9 46.3
02:50 1027 30.33 856 25.28 12.7 54.9 73 8 46.3
02:55 1027 30.33 856 25.28 12.7 54.8 73 7.9 46.3
03:00 1027 30.33 856 25.28 12.6 54.8 73 7.9 46.2
03:05 1027 30.33 856 25.28 12.6 54.7 73 7.9 46.2
03:10 1027 30.33 856 25.28 12.6 54.7 73 7.9 46.1
03:15 1027 30.33 856 25.28 12.7 54.8 72 7.9 46.2
03:20 1027 30.33 856 25.28 12.6 54.7 73 7.9 46.2
03:25 1027 30.33 856 25.28 12.5 54.5 73 7.9 46.1
03:30 1027 30.33 856 25.28 12.5 54.5 73 7.8 46.1
03:35 1027 30.33 856 25.28 12.5 54.5 73 7.8 46.1
03:40 1027 30.33 856 25.28 12.5 54.4 73 7.8 46
03:45 1027 30.33 856 25.28 12.5 54.4 73 7.8 46
03:50 1027 30.33 856 25.28 12.4 54.3 73 7.8 46
03:55 1027 30.33 856 25.28 12.4 54.3 73 7.7 45.9
04:00 1027 30.33 856 25.28 12.4 54.4 73 7.7 45.9
04:05 1027 30.33 856 25.28 12.5 54.4 73 7.7 45.9
04:10 1027 30.33 856 25.28 12.5 54.4 72 7.7 45.8
04:15 1027 30.33 856 25.28 12.4 54.4 72 7.6 45.7
04:20 1027 30.33 856 25.28 12.4 54.3 72 7.6 45.7
04:25 1027 30.33 856 25.28 12.3 54.2 73 7.6 45.6
04:30 1027 30.33 856 25.28 12.3 54.2 72 7.5 45.6
04:35 1027 30.33 856 25.28 12.3 54.2 73 7.6 45.6
04:40 1027 30.33 856 25.28 12.3 54.1 73 7.5 45.5
04:45 1027 30.33 856 25.28 12.3 54.1 73 7.5 45.5
04:50 1027 30.33 856 25.28 12.2 54 73 7.5 45.5
04:55 1027 30.33 856 25.28 12.2 54 73 7.5 45.5
05:00 1027 30.33 856 25.28 12.2 53.9 73 7.4 45.4
05:05 1027 30.33 856 25.28 12.3 54.1 72 7.4 45.3
05:10 1027 30.33 856 25.28 12.3 54.1 72 7.5 45.4
05:15 1027 30.33 856 25.28 12.2 54 73 7.5 45.5
05:20 1027 30.33 856 25.28 12.2 53.9 73 7.5 45.5
05:25 1027 30.33 856 25.28 12.1 53.8 73 7.4 45.3
05:30 1027 30.33 856 25.28 12.1 53.8 73 7.4 45.3
05:35 1027 30.33 856 25.28 12.1 53.7 73 7.4 45.2
05:40 1027 30.33 856 25.28 12.1 53.7 73 7.4 45.2
05:45 1027 30.33 856 25.28 12 53.6 73 7.3 45.1
05:50 1027 30.33 856 25.28 12 53.5 72 7.2 44.9
05:55 1027 30.33 856 25.28 12 53.7 72 7.2 44.9
06:00 1027 30.33 856 25.28 12 53.6 72 7.2 45
06:05 1027 30.33 856 25.28 12 53.5 73 7.2 45
06:10 1027 30.33 856 25.28 11.9 53.5 73 7.3 45.1
06:15 1027 30.33 856 25.28 11.9 53.4 73 7.2 45
06:20 1027 30.33 856 25.28 11.9 53.3 73 7.2 45
06:25 1027 30.33 856 25.28 11.9 53.4 73 7.2 45
06:30 1027 30.33 856 25.28 11.9 53.5 73 7.2 45
06:35 1027 30.33 856 25.28 12 53.5 72 7.2 44.9
06:40 1027 30.33 856 25.28 12 53.6 72 7.2 44.9
06:45 1027 30.33 856 25.28 12 53.6 72 7.2 45
06:50 1027 30.33 856 25.28 12 53.6 72 7.2 44.9
06:55 1027 30.33 856 25.28 12 53.7 72 7.2 44.9
07:00 1027 30.33 856 25.28 12.1 53.7 72 7.2 44.9
07:05 1027 30.33 856 25.28 12.1 53.8 71 7.1 44.8
07:10 1027 30.33 856 25.28 12.2 53.9 71 7.1 44.8
07:15 1027 30.33 856 25.28 12.2 54 71 7.1 44.8
07:20 1027 30.33 856 25.28 12.3 54.2 70 7.1 44.8
07:25 1027 30.33 856 25.28 12.4 54.3 70 7.1 44.7
07:30 1027 30.33 856 25.28 12.5 54.4 69 7.1 44.7
07:35 1027 30.33 856 25.28 12.5 54.5 69 7.1 44.7
07:40 1027 30.33 856 25.28 12.5 54.5 69 7.1 44.8
07:45 1027 30.33 856 25.28 12.6 54.6 69 7 44.7
07:50 1027 30.33 856 25.28 12.7 54.8 68 7 44.6
07:55 1027 30.33 856 25.28 12.8 55.1 68 7.1 44.7
08:00 1027 30.33 856 25.28 12.9 55.1 68 7.2 44.9
08:05 1027 30.33 856 25.28 12.9 55.2 68 7.2 44.9
08:10 1027 30.33 856 25.28 13 55.4 67 7.2 44.9
08:15 1027 30.33 856 25.28 13.2 55.7 66 7 44.6
08:20 1027 30.33 856 25.28 13.3 56 67 7.3 45.1
08:25 1027 30.33 856 25.28 13.5 56.3 66 7.3 45.1
08:30 1027 30.33 856 25.28 13.7 56.7 65 7.3 45.2
08:35 1027 30.33 856 25.28 13.6 56.6 65 7.2 44.9
08:40 1027 30.33 856 25.28 13.5 56.4 64 7 44.6
08:45 1027 30.33 856 25.28 13.5 56.4 65 7.1 44.7
08:50 1027 30.33 856 25.28 13.6 56.5 65 7.2 45
08:55 1027 30.33 856 25.28 13.6 56.5 65 7.1 44.9
09:00 1027 30.33 856 25.28 14 57.3 62 7 44.7
09:05 1027 30.33 856 25.28 14.1 57.4 63 7.1 44.9
09:10 1027 30.33 856 25.28 14.2 57.6 62 7.2 44.9
09:15 1027 30.33 856 25.28 14.3 57.7 61 7 44.7
09:20 1027 30.33 856 25.28 14.3 57.7 63 7.3 45.1
09:25 1027 30.33 856 25.28 14.5 58 62 7.2 45
09:30 1027 30.33 856 25.28 14.6 58.3 60 7 44.6
09:35 1027 30.33 856 25.28 14.9 58.8 59 7.1 44.8
09:40 1027 30.33 856 25.28 15 59.1 58 7 44.6
09:45 1027 30.33 856 25.28 15.2 59.4 59 7.3 45.2
09:50 1027 30.33 856 25.28 15.2 59.4 57 6.9 44.5
09:55 1027 30.33 856 25.28 15.3 59.5 58 7.1 44.8
10:00 1027 30.33 856 25.28 15.3 59.5 56 6.8 44.2
10:05 1026 30.3 856 25.28 15.4 59.8 56 6.7 44.1
10:10 1026 30.3 856 25.28 16 60.8 54 6.9 44.3
10:15 1026 30.3 856 25.28 16.3 61.3 54 7.1 44.8
10:20 1026 30.3 856 25.28 16.1 61 54 6.8 44.3
10:25 1026 30.3 856 25.28 16.6 61.8 52 6.8 44.3
10:30 1026 30.3 856 25.28 16.7 62.1 52 7 44.6
10:35 1026 30.3 856 25.28 17 62.6 51 7 44.5
10:40 1026 30.3 856 25.28 17.4 63.3 50 7 44.6
10:45 1026 30.3 855 25.25 17.2 63 49 6.7 44
10:50 1026 30.3 855 25.25 17.6 63.7 48 6.7 44
10:55 1026 30.3 855 25.25 17.7 63.9 47 6.5 43.6
11:00 1026 30.3 855 25.25 18 64.4 48 6.8 44.3
11:05 1026 30.3 855 25.25 17.9 64.2 48 6.8 44.2
11:10 1026 30.3 855 25.25 18 64.5 46 6.3 43.4
11:15 1026 30.3 855 25.25 18.3 64.9 45 6.4 43.5
11:20 1026 30.3 855 25.25 18.1 64.6 44 5.9 42.6
11:25 1026 30.3 855 25.25 18.3 65 43 5.6 42.2
11:30 1026 30.3 855 25.25 19.1 66.3 41 5.6 42.1
11:35 1026 30.3 855 25.25 19.4 66.9 41 6.1 43
11:40 1025 30.27 855 25.25 19.6 67.3 40 5.8 42.4
11:45 1025 30.27 855 25.25 19.7 67.5 40 5.8 42.4
11:50 1025 30.27 855 25.25 19.6 67.2 39 5.6 42
11:55 1025 30.27 855 25.25 19.8 67.6 39 5.6 42.1
12:00 1025 30.27 855 25.25 19.9 67.8 39 5.6 42
12:05 1025 30.27 855 25.25 20 68 39 5.8 42.5
12:10 1025 30.27 855 25.25 20.1 68.2 41 6.4 43.6
12:15 1025 30.27 854 25.22 20.5 69 38 5.8 42.5
12:20 1025 30.27 854 25.22 20.8 69.4 38 6 42.9
12:25 1025 30.27 854 25.22 21 69.8 38 6.4 43.4
12:30 1025 30.27 854 25.22 21.4 70.5 38 6.5 43.7
12:35 1025 30.27 854 25.22 21.5 70.7 38 6.7 44
12:40 1025 30.27 854 25.22 21.5 70.7 38 6.6 43.9
12:45 1025 30.27 854 25.22 20.9 69.7 40 7.1 44.8
12:50 1025 30.27 854 25.22 21.3 70.4 37 6.2 43.1
12:55 1025 30.27 854 25.22 21.6 70.8 37 6.3 43.3
13:00 1025 30.27 854 25.22 21.9 71.4 36 6.4 43.5
13:05 1025 30.27 854 25.22 21.5 70.7 39 7 44.6
13:10 1025 30.27 854 25.22 22 71.7 36 6.5 43.7
13:15 1025 30.27 854 25.22 22.9 73.1 35 6.7 44.1
13:20 1025 30.27 854 25.22 23 73.4 34 6.7 44
13:25 1025 30.27 854 25.22 22.5 72.5 35 6.5 43.6
13:30 1025 30.27 854 25.22 22.5 72.5 35 6.5 43.7
13:35 1024 30.24 854 25.22 22.8 73 36 7 44.6
13:40 1024 30.24 854 25.22 22.5 72.6 35 6.4 43.5
13:45 1024 30.24 854 25.22 22.9 73.2 36 7.3 45.1
13:50 1024 30.24 854 25.22 23 73.3 36 7.3 45.2
13:55 1024 30.24 854 25.22 22.9 73.2 33 5.9 42.7
14:00 1024 30.24 853 25.19 23.1 73.5 33 6.3 43.3
14:05 1024 30.24 853 25.19 23.9 75.1 33 6.7 44.1
14:10 1024 30.24 853 25.19 23 73.4 34 6.3 43.3
14:15 1024 30.24 853 25.19 23 73.4 33 6 42.8
14:20 1024 30.24 853 25.19 23.2 73.7 32 5.8 42.4
14:25 1024 30.24 853 25.19 23.8 74.8 31 6 42.7
14:30 1024 30.24 853 25.19 24.3 75.7 31 6.4 43.5
14:35 1024 30.24 853 25.19 24.4 75.9 31 6.6 43.8
14:40 1024 30.24 853 25.19 23.9 75.1 31 5.9 42.7
14:45 1024 30.24 853 25.19 24.4 75.9 30 5.8 42.5
14:50 1024 30.24 853 25.19 24.9 76.8 28 5.3 41.5
14:55 1024 30.24 853 25.19 25.2 77.3 30 6.8 44.3
15:00 1024 30.24 853 25.19 25.4 77.7 29 6.4 43.6
15:05 1024 30.24 853 25.19 25.2 77.4 28 5.8 42.4
15:10 1024 30.24 853 25.19 25.3 77.6 30 6.7 44
15:15 1024 30.24 853 25.19 24.8 76.7 29 5.8 42.5
15:20 1024 30.24 853 25.19 25.4 77.7 28 5.9 42.6
15:25 1024 30.24 853 25.19 25.3 77.5 29 6.1 43.1
15:30 1024 30.24 853 25.19 25.9 78.7 27 6 42.7
15:35 1023 30.21 853 25.19 26.5 79.8 27 6.4 43.5
15:40 1023 30.21 853 25.19 26.5 79.8 26 5.9 42.7
15:45 1023 30.21 853 25.19 26.1 79 29 6.9 44.4
15:50 1023 30.21 853 25.19 25.2 77.4 30 6.5 43.6
15:55 1023 30.21 852 25.16 25.1 77.2 28 5.6 42.1
16:00 1023 30.21 852 25.16 25.9 78.7 27 5.7 42.3
16:05 1023 30.21 852 25.16 26.6 79.9 26 5.8 42.4
16:10 1023 30.21 852 25.16 25.9 78.6 25 4.8 40.6
16:15 1023 30.21 852 25.16 25.5 77.9 25 4.6 40.2
16:20 1023 30.21 852 25.16 25.5 77.9 23 3.3 38
16:25 1023 30.21 852 25.16 25.9 78.6 23 3.4 38.1
16:30 1023 30.21 852 25.16 26.8 80.2 21 3 37.4
16:35 1023 30.21 852 25.16 27.7 81.9 18 1.8 35.2
16:40 1023 30.21 852 25.16 27.5 81.4 18 1.3 34.3
16:45 1023 30.21 852 25.16 26.9 80.4 17 -0.3 31.5
16:50 1023 30.21 852 25.16 27.1 80.7 18 0.6 33.1
16:55 1023 30.21 852 25.16 27.2 80.9 18 1.1 34
17:00 1023 30.21 852 25.16 28.1 82.5 15 -0.4 31.3
17:05 1023 30.21 852 25.16 28.2 82.8 16 0.1 32.2
17:10 1023 30.21 852 25.16 27.5 81.5 18 1.3 34.4
17:15 1023 30.21 852 25.16 27.3 81.1 17 0.6 33
17:20 1023 30.21 852 25.16 27 80.5 18 0.6 33
17:25 1022 30.18 852 25.16 26.7 80 19 1.3 34.4
17:30 1022 30.18 852 25.16 26.7 80.1 18 0.5 33
17:35 1022 30.18 852 25.16 27.3 81.1 16 -0.2 31.6
17:40 1022 30.18 852 25.16 27.7 81.9 17 0.4 32.8
17:45 1022 30.18 851 25.13 27.5 81.4 17 0.5 32.8
17:50 1022 30.18 851 25.13 27.6 81.7 17 0.4 32.8
17:55 1022 30.18 851 25.13 27.6 81.7 17 0.9 33.5
18:00 1022 30.18 851 25.13 27.7 81.9 17 0.5 32.8
18:05 1022 30.18 851 25.13 28.1 82.6 18 1.7 35.1
18:10 1022 30.18 851 25.13 28.1 82.5 17 1.2 34.2
18:15 1022 30.18 851 25.13 28.1 82.5 17 1.1 33.9
18:20 1022 30.18 851 25.13 27.8 82 18 1.2 34.2
18:25 1022 30.18 851 25.13 27.7 81.9 17 1.1 34
18:30 1022 30.18 851 25.13 27.5 81.6 18 1 33.8
18:35 1022 30.18 851 25.13 26.6 80 19 1.4 34.5
18:40 1022 30.18 851 25.13 25.9 78.7 25 4.9 40.9
18:45 1022 30.18 851 25.13 25.3 77.5 26 4.8 40.6
18:50 1022 30.18 851 25.13 24.9 76.9 26 4.4 39.8
18:55 1022 30.18 851 25.13 24.8 76.7 27 4.6 40.2
19:00 1022 30.18 851 25.13 24.5 76.2 27 4.5 40.2
19:05 1022 30.18 851 25.13 24.5 76 27 4.6 40.3
19:10 1021 30.15 851 25.13 24.4 76 28 4.9 40.8
19:15 1021 30.15 851 25.13 24.2 75.6 28 5 40.9
19:20 1021 30.15 851 25.13 24.1 75.3 28 4.9 40.8
19:25 1021 30.15 851 25.13 23.9 74.9 29 4.8 40.6
19:30 1021 30.15 851 25.13 23.6 74.5 29 4.7 40.5
19:35 1021 30.15 851 25.13 23.5 74.2 29 4.6 40.4
19:40 1021 30.15 851 25.13 23.3 74 30 4.9 40.8
19:45 1021 30.15 850 25.1 23.2 73.7 30 4.8 40.6
19:50 1021 30.15 850 25.1 23 73.4 30 4.7 40.5
19:55 1021 30.15 850 25.1 22.8 73.1 31 4.9 40.8
20:00 1021 30.15 850 25.1 22.7 72.9 31 4.9 40.8
20:05 1021 30.15 850 25.1 22.5 72.6 31 4.9 40.8
20:10 1021 30.15 850 25.1 22.3 72.2 31 4.7 40.5
20:15 1021 30.15 850 25.1 22.2 71.9 32 4.7 40.4
20:20 1021 30.15 850 25.1 22 71.6 32 4.7 40.5
20:25 1021 30.15 850 25.1 21.8 71.3 32 4.8 40.6
20:30 1021 30.15 850 25.1 21.6 70.9 33 4.8 40.6
20:35 1021 30.15 850 25.1 21.5 70.6 33 4.8 40.6
20:40 1021 30.15 850 25.1 21.3 70.4 33 4.8 40.6
20:45 1021 30.15 850 25.1 21.2 70.1 34 4.7 40.5
20:50 1021 30.15 850 25.1 21 69.8 35 4.9 40.9
20:55 1021 30.15 850 25.1 20.8 69.5 35 5 40.9
21:00 1021 30.15 850 25.1 20.7 69.3 36 5.1 41.2
21:05 1021 30.15 850 25.1 20.5 68.9 37 5.3 41.5
21:10 1021 30.15 850 25.1 20.4 68.7 37 5.3 41.5
21:15 1021 30.15 850 25.1 20.2 68.4 38 5.4 41.8
21:20 1021 30.15 850 25.1 20 68.1 38 5.6 42
21:25 1021 30.15 850 25.1 19.9 67.8 39 5.6 42.2
21:30 1021 30.15 850 25.1 19.7 67.5 39 5.7 42.2
21:35 1021 30.15 850 25.1 19.6 67.3 40 5.7 42.2
21:40 1021 30.15 850 25.1 19.6 67.3 39 5.6 42.1
21:45 1021 30.15 850 25.1 19.6 67.2 40 5.7 42.3
21:50 1021 30.15 850 25.1 19.5 67 40 5.6 42.1
21:55 1021 30.15 850 25.1 19.4 67 40 5.7 42.3
22:00 1021 30.15 850 25.1 19.4 66.9 40 5.7 42.2
22:05 1021 30.15 850 25.1 19.3 66.8 41 5.8 42.4
22:10 1021 30.15 850 25.1 19.2 66.6 41 5.7 42.3
22:15 1021 30.15 850 25.1 19.1 66.5 41 5.7 42.3
22:20 1021 30.15 850 25.1 19.1 66.3 41 5.7 42.3
22:25 1021 30.15 850 25.1 19 66.2 41 5.7 42.3
22:30 1021 30.15 850 25.1 18.9 66 42 5.8 42.4
22:35 1021 30.15 850 25.1 18.9 66 42 5.8 42.4
22:40 1021 30.15 850 25.1 18.8 65.8 42 5.7 42.3
22:45 1021 30.15 850 25.1 18.8 65.8 42 5.7 42.3
22:50 1021 30.15 850 25.1 18.8 65.8 42 5.7 42.3
22:55 1021 30.15 850 25.1 18.7 65.7 42 5.7 42.2
23:00 1021 30.15 850 25.1 18.7 65.6 42 5.7 42.3
23:05 1021 30.15 850 25.1 18.7 65.6 42 5.7 42.3
23:10 1021 30.15 850 25.1 18.6 65.5 43 5.8 42.4
23:15 1021 30.15 850 25.1 18.5 65.3 43 5.7 42.3
23:20 1021 30.15 850 25.1 18.5 65.2 43 5.8 42.4
23:25 1021 30.15 850 25.1 18.3 65 43 5.8 42.4
23:30 1021 30.15 850 25.1 18.2 64.8 44 5.8 42.5
23:35 1021 30.15 850 25.1 18.2 64.7 44 5.8 42.5
23:40 1021 30.15 850 25.1 18.2 64.7 44 5.9 42.6
23:45 1021 30.15 850 25.1 18 64.4 45 5.9 42.6
23:50 1021 30.15 850 25.1 17.8 64.1 45 5.9 42.7
23:55 1021 30.15 850 25.1 17.7 63.8 46 6 42.8
24:00 1021 30.15 850 25.1 17.5 63.6 46 5.9 42.7